Preston Park, Pennsylvania
Current Conditions -  °F | °C
As of 3:15 PM on Sunday 23 Nov 2014 (Local Time) from KMSV Reporting Station
Few Clouds Few Clouds  
Wind Chill: 52°   Ceiling: Unl
Heat Index: 52°   Visibility: 10mi
Dew Point: 30°   Wind: 3mph
Humidity: 44%   Direction: 110°ESE
Pressure: 30.1"   Gusts: NA
Location:  41.88°N, 75.36°W
Report Text: KMSV 232015Z AUTO 11003KT 10SM FEW120 11/M01 A3010 RMK AO1
Loading
Personal Weather Stations






























Interactive Weather Map New forecast layout! Learn more

10-Day Weather Forecast

Advertisements
Track Severe Weather on mobile